Time;durP1;ratioP1;P1;durP2;ratioP2;P2;SDS_P1;SDS_P2;PMS_P1;PMS_P2;Temp;Humidity;BMP_temperature;BMP_pressure;BME280_temperature;BME280_humidity;BME280_pressure;Samples;Min_cycle;Max_cycle;Signal;HPM_P1;HPM_P2
2023/04/04 00:01:22;;;;;;;3.67;2.25;;;5.30;56.50;;;;;;5082129;28;20049;-68
2023/04/04 00:03:50;;;;;;;2.65;1.70;;;5.20;56.50;;;;;;5082840;28;20052;-68
2023/04/04 00:06:17;;;;;;;4.15;2.28;;;5.20;56.50;;;;;;5082416;28;20026;-67
2023/04/04 00:08:43;;;;;;;3.28;1.80;;;5.10;56.70;;;;;;5084675;28;20375;-68
2023/04/04 00:11:09;;;;;;;4.38;2.05;;;5.10;56.70;;;;;;5079195;28;20024;-68
2023/04/04 00:13:35;;;;;;;3.63;2.10;;;5.10;56.80;;;;;;5079850;28;20025;-68
2023/04/04 00:16:00;;;;;;;3.40;2.00;;;5.10;56.90;;;;;;5085485;28;20036;-68
2023/04/04 00:18:26;;;;;;;4.07;2.40;;;5.10;56.90;;;;;;5084105;28;20102;-67
2023/04/04 00:20:52;;;;;;;3.08;2.20;;;5.10;57.10;;;;;;5080265;28;20035;-68
2023/04/04 00:23:17;;;;;;;4.00;2.05;;;5.10;57.10;;;;;;5083649;28;20149;-68
2023/04/04 00:25:51;;;;;;;3.40;1.90;;;5.00;57.20;;;;;;5082447;28;20032;-68
2023/04/04 00:28:18;;;;;;;3.55;1.92;;;5.00;57.20;;;;;;5083769;28;20463;-68
2023/04/04 00:30:44;;;;;;;3.08;2.20;;;5.00;57.30;;;;;;5086066;28;20425;-68
2023/04/04 00:33:09;;;;;;;4.53;2.17;;;5.00;57.30;;;;;;5083156;28;20023;-68
2023/04/04 00:35:35;;;;;;;3.67;2.05;;;5.00;57.30;;;;;;5080124;28;20029;-68
2023/04/04 00:38:01;;;;;;;3.42;2.10;;;5.00;57.40;;;;;;5082966;28;20089;-68
2023/04/04 00:40:27;;;;;;;3.30;2.13;;;5.00;57.50;;;;;;5082948;28;20023;-67
2023/04/04 00:42:53;;;;;;;2.70;2.00;;;4.90;57.40;;;;;;5076859;28;20063;-67
2023/04/04 00:45:18;;;;;;;3.03;2.03;;;4.90;57.50;;;;;;5082907;28;20484;-68
2023/04/04 00:47:45;;;;;;;3.60;2.03;;;4.90;57.60;;;;;;5082438;28;20021;-68
2023/04/04 00:50:11;;;;;;;3.63;2.38;;;4.90;57.70;;;;;;5083669;28;20023;-68
2023/04/04 00:52:36;;;;;;;5.13;2.72;;;4.80;57.90;;;;;;5082859;28;20029;-67
2023/04/04 00:55:03;;;;;;;4.85;2.40;;;4.70;58.20;;;;;;5082041;28;20080;-68
2023/04/04 00:57:29;;;;;;;4.07;2.30;;;4.60;58.40;;;;;;5083863;28;20142;-68
2023/04/04 00:59:56;;;;;;;3.83;2.20;;;4.50;58.60;;;;;;5080569;28;20016;-68
2023/04/04 01:02:23;;;;;;;4.47;2.45;;;4.50;58.80;;;;;;5084726;28;20031;-68
2023/04/04 01:04:50;;;;;;;4.07;2.40;;;4.50;59.00;;;;;;5080985;28;20024;-68
2023/04/04 01:07:17;;;;;;;4.05;2.55;;;4.40;59.10;;;;;;5081399;28;20024;-67
2023/04/04 01:09:43;;;;;;;3.20;2.33;;;4.40;59.00;;;;;;5078818;28;20039;-67
2023/04/04 01:12:09;;;;;;;4.75;2.60;;;4.40;59.20;;;;;;5081905;28;20024;-68
2023/04/04 01:14:34;;;;;;;3.78;2.50;;;4.30;59.30;;;;;;5077215;28;20047;-69
2023/04/04 01:17:02;;;;;;;5.05;2.80;;;4.30;59.40;;;;;;5082498;28;20569;-68
2023/04/04 01:19:42;;;;;;;5.53;2.80;;;4.30;59.40;;;;;;5085965;28;20012;-69
2023/04/04 01:22:09;;;;;;;3.67;2.42;;;4.30;59.60;;;;;;5077755;28;20089;-69
2023/04/04 01:24:36;;;;;;;5.57;2.58;;;4.20;59.60;;;;;;5082190;28;20390;-68
2023/04/04 01:27:02;;;;;;;4.68;2.78;;;4.30;59.70;;;;;;5076121;28;20052;-68
2023/04/04 01:29:28;;;;;;;6.13;2.60;;;4.20;59.70;;;;;;5080106;28;20017;-68
2023/04/04 01:32:11;;;;;;;5.40;2.65;;;4.20;59.60;;;;;;5081610;28;20478;-68
2023/04/04 01:34:54;;;;;;;3.75;2.63;;;4.30;59.60;;;;;;5082338;28;20055;-68
2023/04/04 01:37:29;;;;;;;4.68;2.40;;;4.30;59.70;;;;;;5083938;28;20401;-67
2023/04/04 01:40:13;;;;;;;3.63;2.25;;;4.20;60.20;;;;;;5077336;28;20040;-68
2023/04/04 01:42:41;;;;;;;4.22;2.10;;;4.30;59.60;;;;;;5081812;28;20495;-67
2023/04/04 01:45:07;;;;;;;4.20;2.55;;;4.30;59.40;;;;;;5081864;28;20075;-67
2023/04/04 01:47:40;;;;;;;3.50;2.10;;;4.30;59.40;;;;;;5079766;28;20055;-67
2023/04/04 01:50:10;;;;;;;2.85;1.95;;;4.40;59.40;;;;;;5078451;28;20546;-67
2023/04/04 01:52:36;;;;;;;6.60;2.75;;;4.40;59.40;;;;;;5079097;28;20025;-67
2023/04/04 01:55:02;;;;;;;4.30;2.25;;;4.40;59.30;;;;;;5080629;28;20051;-68
2023/04/04 01:57:29;;;;;;;4.30;2.30;;;4.30;59.30;;;;;;5079796;28;20039;-67
2023/04/04 01:59:54;;;;;;;3.50;2.30;;;4.30;59.30;;;;;;5084298;28;20541;-68
2023/04/04 02:02:20;;;;;;;5.05;2.40;;;4.30;59.40;;;;;;5078653;28;20037;-68
2023/04/04 02:04:46;;;;;;;3.25;2.30;;;4.30;59.40;;;;;;5082206;28;20116;-67
2023/04/04 02:07:13;;;;;;;4.03;2.40;;;4.30;59.50;;;;;;5078860;28;20027;-68
2023/04/04 02:09:38;;;;;;;3.30;2.15;;;4.20;59.50;;;;;;5081988;28;20027;-69
2023/04/04 02:12:04;;;;;;;2.90;1.92;;;4.20;59.50;;;;;;5077358;28;20025;-67
2023/04/04 02:14:30;;;;;;;2.50;1.80;;;4.20;60.10;;;;;;5082102;28;20036;-68
2023/04/04 02:16:55;;;;;;;2.67;1.90;;;4.30;59.50;;;;;;5084073;28;21765;-67
2023/04/04 02:19:21;;;;;;;2.45;1.70;;;4.30;59.50;;;;;;5090620;28;20076;-68
2023/04/04 02:21:46;;;;;;;2.33;1.83;;;4.30;59.40;;;;;;5083705;28;20028;-67
2023/04/04 02:24:12;;;;;;;2.42;1.75;;;4.30;59.40;;;;;;5083941;28;20036;-67
2023/04/04 02:26:37;;;;;;;3.00;2.00;;;4.30;59.40;;;;;;5081093;28;20020;-68
2023/04/04 02:29:03;;;;;;;3.03;1.90;;;4.30;59.40;;;;;;5083497;28;20118;-67
2023/04/04 02:31:29;;;;;;;3.45;2.10;;;4.30;59.50;;;;;;5083863;28;20056;-68
2023/04/04 02:33:55;;;;;;;3.17;1.80;;;4.30;59.60;;;;;;5079207;28;20680;-68
2023/04/04 02:36:21;;;;;;;3.20;1.90;;;4.20;59.60;;;;;;5082860;28;20070;-67
2023/04/04 02:38:46;;;;;;;3.08;1.73;;;4.20;59.70;;;;;;5085429;28;20044;-67
2023/04/04 02:41:12;;;;;;;2.38;1.80;;;4.10;59.70;;;;;;5081121;28;20116;-67
2023/04/04 02:43:37;;;;;;;2.60;1.80;;;4.10;59.80;;;;;;5079941;28;20478;-68
2023/04/04 02:46:03;;;;;;;2.85;1.80;;;4.10;59.90;;;;;;5082787;28;20025;-68
2023/04/04 02:48:28;;;;;;;2.97;2.00;;;4.10;60.00;;;;;;5088641;28;20020;-68
2023/04/04 02:50:54;;;;;;;2.75;1.90;;;4.00;59.90;;;;;;5082986;28;20020;-68
2023/04/04 02:53:20;;;;;;;2.67;2.08;;;4.00;59.90;;;;;;5087107;28;20060;-68
2023/04/04 02:55:46;;;;;;;3.55;1.90;;;4.00;60.00;;;;;;5082232;28;20036;-68
2023/04/04 02:58:12;;;;;;;4.93;2.30;;;4.00;60.00;;;;;;5084098;28;20027;-67
2023/04/04 03:00:37;;;;;;;3.00;2.17;;;4.00;60.00;;;;;;5083548;28;20028;-68
2023/04/04 03:03:04;;;;;;;4.97;1.92;;;4.00;60.10;;;;;;5082457;28;20029;-67
2023/04/04 03:05:30;;;;;;;3.15;2.10;;;3.90;60.10;;;;;;5084145;28;20024;-67
2023/04/04 03:07:57;;;;;;;4.10;2.10;;;3.90;60.20;;;;;;5085025;28;20489;-68
2023/04/04 03:10:23;;;;;;;2.72;2.10;;;3.90;60.40;;;;;;5083494;28;20024;-67
2023/04/04 03:12:49;;;;;;;3.08;1.88;;;3.80;60.50;;;;;;5080648;28;20471;-68
2023/04/04 03:15:15;;;;;;;3.95;2.10;;;3.80;60.50;;;;;;5088242;28;20432;-67
2023/04/04 03:17:41;;;;;;;3.75;2.20;;;3.70;60.80;;;;;;5084595;28;20024;-66
2023/04/04 03:20:07;;;;;;;3.40;2.00;;;3.70;60.90;;;;;;5081359;28;20347;-68
2023/04/04 03:22:33;;;;;;;2.78;2.15;;;3.70;61.00;;;;;;5084688;28;20023;-66
2023/04/04 03:24:59;;;;;;;3.97;2.50;;;3.70;61.10;;;;;;5078240;28;20115;-66
2023/04/04 03:27:24;;;;;;;3.58;2.05;;;3.70;61.20;;;;;;5079747;28;20433;-66
2023/04/04 03:29:50;;;;;;;4.25;2.40;;;3.70;61.30;;;;;;5083567;28;20651;-67
2023/04/04 03:32:17;;;;;;;4.13;2.80;;;3.60;61.50;;;;;;5081832;28;20028;-65
2023/04/04 03:34:43;;;;;;;3.95;2.55;;;3.50;61.60;;;;;;5081728;28;20020;-67
2023/04/04 03:37:09;;;;;;;4.35;2.53;;;3.50;61.60;;;;;;5080154;28;20104;-66
2023/04/04 03:39:35;;;;;;;4.43;2.28;;;3.50;61.70;;;;;;5080192;28;20099;-67
2023/04/04 03:42:00;;;;;;;4.85;2.72;;;3.50;61.50;;;;;;5083987;28;20040;-66
2023/04/04 03:44:26;;;;;;;4.15;2.50;;;3.50;61.50;;;;;;5082597;28;20024;-70
2023/04/04 03:46:51;;;;;;;4.97;2.70;;;3.50;61.40;;;;;;5080532;28;20543;-67
2023/04/04 03:49:17;;;;;;;4.45;2.40;;;3.50;61.50;;;;;;5083338;28;20453;-68
2023/04/04 03:51:42;;;;;;;2.60;2.05;;;3.50;61.50;;;;;;5084446;28;20020;-67
2023/04/04 03:54:08;;;;;;;4.50;2.53;;;3.50;61.40;;;;;;5082612;28;20024;-67
2023/04/04 03:56:34;;;;;;;3.20;2.08;;;3.50;61.50;;;;;;5081635;28;20016;-66
2023/04/04 03:59:00;;;;;;;4.22;2.40;;;3.50;61.50;;;;;;5082664;28;20685;-66
2023/04/04 04:01:25;;;;;;;4.03;2.35;;;3.50;61.60;;;;;;5085077;28;20020;-65
2023/04/04 04:03:51;;;;;;;3.97;2.20;;;3.40;61.50;;;;;;5082316;28;20035;-66
2023/04/04 04:06:16;;;;;;;5.55;2.22;;;3.50;61.50;;;;;;5078443;28;20024;-66
2023/04/04 04:08:42;;;;;;;4.78;2.63;;;3.50;61.50;;;;;;5082638;28;20037;-67
2023/04/04 04:11:08;;;;;;;5.55;2.55;;;3.40;62.10;;;;;;5080996;28;20100;-67
2023/04/04 04:13:37;;;;;;;4.15;2.60;;;3.40;61.60;;;;;;5082147;28;20108;-66
2023/04/04 04:16:04;;;;;;;5.03;2.70;;;3.40;61.80;;;;;;5084826;28;20162;-67
2023/04/04 04:18:29;;;;;;;4.93;2.80;;;3.30;61.90;;;;;;5085209;28;20035;-67
2023/04/04 04:21:00;;;;;;;3.80;2.42;;;3.30;62.00;;;;;;5082765;28;20028;-67
2023/04/04 04:23:26;;;;;;;5.05;2.72;;;3.30;62.10;;;;;;5080917;28;20043;-67
2023/04/04 04:25:51;;;;;;;3.90;2.45;;;3.30;62.10;;;;;;5077844;28;20074;-68
2023/04/04 04:28:17;;;;;;;4.47;2.60;;;3.30;62.20;;;;;;5084712;28;20032;-68
2023/04/04 04:30:43;;;;;;;3.72;2.38;;;3.30;62.30;;;;;;5081137;28;20021;-67
2023/04/04 04:33:09;;;;;;;3.38;2.15;;;3.30;62.20;;;;;;5079440;28;20429;-67
2023/04/04 04:35:38;;;;;;;4.38;2.08;;;3.30;62.10;;;;;;5084944;28;20529;-66
2023/04/04 04:38:05;;;;;;;3.72;2.22;;;3.40;62.00;;;;;;5078966;28;20024;-66
2023/04/04 04:40:31;;;;;;;4.55;2.38;;;3.40;62.00;;;;;;5078953;28;20055;-67
2023/04/04 04:42:57;;;;;;;4.05;2.25;;;3.40;61.90;;;;;;5081744;28;20031;-67
2023/04/04 04:45:22;;;;;;;2.97;2.10;;;3.40;61.90;;;;;;5079182;28;20028;-66
2023/04/04 04:47:48;;;;;;;2.90;2.17;;;3.40;61.90;;;;;;5082526;28;20024;-66
2023/04/04 04:50:15;;;;;;;2.83;2.10;;;3.40;61.90;;;;;;5079571;28;20016;-67
2023/04/04 04:52:40;;;;;;;3.70;2.20;;;3.40;61.90;;;;;;5079675;28;20016;-65
2023/04/04 04:55:07;;;;;;;3.78;2.40;;;3.40;62.20;;;;;;5080413;28;20559;-68
2023/04/04 04:57:33;;;;;;;4.22;2.40;;;3.30;62.10;;;;;;5077779;28;20032;-67
2023/04/04 05:00:00;;;;;;;3.60;2.20;;;3.30;62.20;;;;;;5081082;28;20552;-67
2023/04/04 05:02:25;;;;;;;2.85;2.25;;;3.20;62.30;;;;;;5082538;28;20052;-68
2023/04/04 05:04:51;;;;;;;4.05;2.30;;;3.20;62.50;;;;;;5083021;28;20078;-68
2023/04/04 05:07:16;;;;;;;2.50;2.10;;;3.20;62.60;;;;;;5078774;28;20039;-69
2023/04/04 05:09:42;;;;;;;3.22;2.15;;;3.20;62.70;;;;;;5087246;28;20033;-69
2023/04/04 05:12:07;;;;;;;4.03;2.50;;;3.10;62.80;;;;;;5078290;28;20085;-69
2023/04/04 05:14:33;;;;;;;3.63;2.10;;;3.10;62.90;;;;;;5079931;28;20073;-68
2023/04/04 05:16:58;;;;;;;3.40;2.45;;;3.10;63.00;;;;;;5084334;28;20094;-69
2023/04/04 05:19:24;;;;;;;3.80;2.50;;;3.10;63.00;;;;;;5086756;28;20035;-68
2023/04/04 05:21:50;;;;;;;4.63;2.30;;;3.10;63.00;;;;;;5081587;28;20027;-68
2023/04/04 05:24:16;;;;;;;3.08;2.22;;;3.10;63.00;;;;;;5085951;28;20106;-69
2023/04/04 05:26:41;;;;;;;4.68;2.13;;;3.10;63.10;;;;;;5088826;28;20028;-69
2023/04/04 05:29:07;;;;;;;5.07;2.58;;;3.10;63.10;;;;;;5085225;28;20020;-69
2023/04/04 05:31:33;;;;;;;4.15;2.53;;;3.10;63.10;;;;;;5086022;28;20031;-69
2023/04/04 05:33:59;;;;;;;3.35;2.53;;;3.10;63.30;;;;;;5086718;28;20032;-70
2023/04/04 05:36:24;;;;;;;4.72;2.80;;;3.00;63.40;;;;;;5082045;28;20027;-68
2023/04/04 05:38:50;;;;;;;4.53;2.60;;;3.00;63.50;;;;;;5080606;28;20032;-68
2023/04/04 05:41:16;;;;;;;3.78;2.55;;;3.00;64.20;;;;;;5083136;28;20039;-68
2023/04/04 05:43:42;;;;;;;4.30;3.00;;;3.20;63.50;;;;;;5082025;28;20111;-69
2023/04/04 05:46:07;;;;;;;3.50;2.47;;;3.20;63.30;;;;;;5076866;28;20445;-69
2023/04/04 05:48:33;;;;;;;4.70;2.88;;;3.30;63.20;;;;;;5078550;28;20040;-69
2023/04/04 05:50:58;;;;;;;3.38;2.60;;;3.60;63.10;;;;;;5076043;28;20016;-69
2023/04/04 05:53:24;;;;;;;3.25;2.58;;;4.00;62.70;;;;;;5080577;28;21337;-68
2023/04/04 05:55:52;;;;;;;3.70;2.80;;;4.60;61.80;;;;;;5081472;28;20082;-69
2023/04/04 05:58:18;;;;;;;4.18;2.92;;;5.50;60.50;;;;;;5072950;28;20386;-69
2023/04/04 06:00:43;;;;;;;4.35;2.58;;;6.70;58.90;;;;;;5075940;28;20020;-69
2023/04/04 06:03:09;;;;;;;6.35;2.63;;;7.40;56.90;;;;;;5079159;28;20038;-69
2023/04/04 06:05:35;;;;;;;5.43;2.80;;;7.90;55.70;;;;;;5079616;28;20034;-69
2023/04/04 06:08:00;;;;;;;3.95;2.40;;;8.50;54.60;;;;;;5074998;28;20039;-69
2023/04/04 06:10:26;;;;;;;4.38;2.60;;;9.20;53.40;;;;;;5078511;28;20050;-69
2023/04/04 06:12:51;;;;;;;5.32;2.90;;;10.10;52.30;;;;;;5081656;28;20020;-69
2023/04/04 06:15:17;;;;;;;6.10;2.72;;;11.00;50.70;;;;;;5080664;28;20083;-69
2023/04/04 06:17:43;;;;;;;4.95;2.83;;;11.50;50.00;;;;;;5081224;28;20086;-69
2023/04/04 06:20:09;;;;;;;4.70;2.67;;;11.90;48.80;;;;;;5077916;28;20029;-69
2023/04/04 06:22:35;;;;;;;4.07;2.60;;;12.40;48.30;;;;;;5080565;28;20024;-69
2023/04/04 06:25:01;;;;;;;5.13;3.58;;;12.80;47.80;;;;;;5077445;28;20077;-68
2023/04/04 06:27:26;;;;;;;3.92;2.75;;;13.20;47.00;;;;;;5073786;28;20736;-69
2023/04/04 06:29:52;;;;;;;5.15;2.88;;;13.10;46.90;;;;;;5076203;28;20386;-69
2023/04/04 06:32:19;;;;;;;3.50;2.35;;;13.20;46.50;;;;;;5083963;28;20024;-69
2023/04/04 06:34:44;;;;;;;4.82;3.10;;;13.10;46.70;;;;;;5079916;28;20722;-69
2023/04/04 06:37:10;;;;;;;4.68;3.10;;;13.30;46.50;;;;;;5076040;28;20032;-69
2023/04/04 06:39:36;;;;;;;4.97;2.72;;;13.90;45.90;;;;;;5077387;28;20020;-69
2023/04/04 06:42:02;;;;;;;3.78;2.20;;;14.10;45.30;;;;;;5081302;28;20642;-69
2023/04/04 06:44:27;;;;;;;6.22;2.63;;;14.50;45.70;;;;;;5087769;28;20032;-69
2023/04/04 06:46:53;;;;;;;4.03;2.88;;;15.30;43.90;;;;;;5083735;28;20024;-69
2023/04/04 06:49:19;;;;;;;3.40;2.50;;;16.00;42.70;;;;;;5082456;28;20439;-69
2023/04/04 06:51:45;;;;;;;4.78;2.78;;;16.60;41.60;;;;;;5086047;28;20027;-69
2023/04/04 06:54:11;;;;;;;3.80;2.30;;;16.40;40.80;;;;;;5079791;28;20028;-69
2023/04/04 06:56:36;;;;;;;4.10;2.53;;;16.60;40.70;;;;;;5087161;28;20023;-69
2023/04/04 06:59:02;;;;;;;7.68;2.63;;;16.50;39.30;;;;;;5079707;28;20504;-69
2023/04/04 07:01:27;;;;;;;4.53;2.58;;;16.70;39.40;;;;;;5077897;28;20483;-69
2023/04/04 07:03:53;;;;;;;4.55;2.75;;;15.90;38.30;;;;;;5080724;28;20035;-69
2023/04/04 07:06:22;;;;;;;4.63;2.40;;;15.60;39.00;;;;;;5080738;28;20111;-69
2023/04/04 07:08:48;;;;;;;3.85;2.28;;;15.50;40.10;;;;;;5073574;28;20100;-69
2023/04/04 07:11:14;;;;;;;5.10;2.55;;;15.90;39.60;;;;;;5086183;28;20028;-69
2023/04/04 07:13:40;;;;;;;4.47;2.47;;;15.50;38.90;;;;;;5085277;28;20027;-69
2023/04/04 07:16:05;;;;;;;4.60;2.30;;;15.70;39.10;;;;;;5084739;28;20024;-69
2023/04/04 07:18:31;;;;;;;5.03;2.72;;;15.80;38.10;;;;;;5083131;28;20025;-69
2023/04/04 07:20:57;;;;;;;3.75;2.50;;;15.80;37.90;;;;;;5081878;28;20024;-69
2023/04/04 07:23:22;;;;;;;3.47;2.03;;;16.40;38.10;;;;;;5083379;28;20042;-69
2023/04/04 07:25:48;;;;;;;4.22;2.42;;;17.10;37.40;;;;;;5085395;28;20034;-69
2023/04/04 07:28:13;;;;;;;3.55;2.17;;;16.90;36.80;;;;;;5089552;28;20478;-69
2023/04/04 07:30:40;;;;;;;3.20;2.13;;;16.60;36.00;;;;;;5081718;28;20025;-70
2023/04/04 07:33:05;;;;;;;3.58;2.25;;;16.30;36.40;;;;;;5081177;28;20048;-69
2023/04/04 07:35:31;;;;;;;2.95;1.95;;;15.80;36.40;;;;;;5084762;28;20058;-69
2023/04/04 07:37:57;;;;;;;4.00;2.40;;;15.30;36.80;;;;;;5082752;28;20079;-69
2023/04/04 07:40:22;;;;;;;3.03;2.05;;;14.50;37.10;;;;;;5079132;28;20505;-69
2023/04/04 07:42:49;;;;;;;4.35;2.30;;;14.00;37.70;;;;;;5075515;28;20025;-69
2023/04/04 07:45:16;;;;;;;3.75;2.40;;;13.50;38.70;;;;;;5078495;28;20028;-69
2023/04/04 07:47:43;;;;;;;3.92;2.30;;;13.10;39.60;;;;;;5081406;28;20023;-69
2023/04/04 07:50:10;;;;;;;7.50;2.50;;;12.60;40.50;;;;;;5083715;28;20462;-69
2023/04/04 07:52:36;;;;;;;3.58;2.53;;;12.10;41.10;;;;;;5088346;28;20132;-69
2023/04/04 07:55:02;;;;;;;4.22;2.30;;;11.50;41.00;;;;;;5085735;28;20025;-71
2023/04/04 07:57:28;;;;;;;4.18;2.40;;;11.00;42.10;;;;;;5087394;28;20539;-69
2023/04/04 07:59:53;;;;;;;5.78;2.67;;;10.50;43.00;;;;;;5086828;28;20120;-69
2023/04/04 08:02:19;;;;;;;4.32;2.25;;;10.30;43.70;;;;;;5078894;28;20390;-69
2023/04/04 08:04:45;;;;;;;3.80;2.20;;;10.20;44.40;;;;;;5085042;28;20028;-69
2023/04/04 08:07:10;;;;;;;4.40;2.20;;;10.20;44.60;;;;;;5079077;28;20024;-69
2023/04/04 08:09:36;;;;;;;4.57;2.17;;;10.20;44.90;;;;;;5094156;28;20028;-69
2023/04/04 08:12:02;;;;;;;3.58;2.40;;;10.10;44.60;;;;;;5095519;28;20020;-69
2023/04/04 08:14:28;;;;;;;6.85;2.92;;;10.10;45.00;;;;;;5093793;28;20410;-69
2023/04/04 08:16:53;;;;;;;4.32;2.63;;;9.90;45.10;;;;;;5096201;28;20034;-69
2023/04/04 08:19:20;;;;;;;4.80;2.60;;;9.70;45.60;;;;;;5079599;28;20024;-69
2023/04/04 08:21:45;;;;;;;4.40;2.60;;;9.70;45.90;;;;;;5095710;28;20016;-69
2023/04/04 08:24:11;;;;;;;3.65;2.28;;;9.70;46.30;;;;;;5089792;28;20528;-69
2023/04/04 08:26:37;;;;;;;4.68;2.38;;;9.70;46.50;;;;;;5086992;28;20031;-69
2023/04/04 08:29:03;;;;;;;5.38;2.80;;;9.80;46.50;;;;;;5094629;28;20035;-69
2023/04/04 08:31:29;;;;;;;3.65;2.13;;;9.60;46.00;;;;;;5087691;28;20482;-69
2023/04/04 08:33:55;;;;;;;3.50;2.53;;;9.60;46.20;;;;;;5081823;28;20021;-69
2023/04/04 08:36:21;;;;;;;4.63;2.53;;;9.60;46.40;;;;;;5090404;28;20032;-69
2023/04/04 08:38:47;;;;;;;3.45;2.40;;;9.60;46.50;;;;;;5083597;28;20033;-69
2023/04/04 08:41:14;;;;;;;4.07;2.70;;;9.70;46.50;;;;;;5092947;28;20386;-69
2023/04/04 08:43:44;;;;;;;4.47;2.30;;;9.70;46.50;;;;;;5088034;28;20039;-69
2023/04/04 08:46:11;;;;;;;3.42;2.42;;;9.60;46.40;;;;;;5086365;28;20560;-69
2023/04/04 08:48:38;;;;;;;5.18;3.00;;;9.50;46.50;;;;;;5082990;28;20446;-69
2023/04/04 08:51:07;;;;;;;3.67;2.35;;;9.40;46.60;;;;;;5087715;28;20059;-69
2023/04/04 08:53:34;;;;;;;3.83;2.72;;;9.50;46.60;;;;;;5085783;28;20024;-69
2023/04/04 08:56:00;;;;;;;5.40;2.92;;;9.50;46.30;;;;;;5087218;28;20039;-69
2023/04/04 08:58:26;;;;;;;4.18;2.40;;;9.60;46.20;;;;;;5086272;28;20032;-69
2023/04/04 09:00:55;;;;;;;3.80;2.13;;;9.50;46.30;;;;;;5085642;28;20509;-69
2023/04/04 09:03:25;;;;;;;4.70;2.50;;;9.60;46.50;;;;;;5083764;28;20473;-69
2023/04/04 09:05:51;;;;;;;8.18;3.92;;;9.60;46.50;;;;;;5082795;28;20521;-69
2023/04/04 09:08:17;;;;;;;5.38;2.63;;;9.60;45.60;;;;;;5077475;28;20021;-69
2023/04/04 09:10:44;;;;;;;3.58;2.70;;;9.40;45.50;;;;;;5081975;28;20069;-69
2023/04/04 09:13:10;;;;;;;3.10;2.53;;;9.30;45.20;;;;;;5081352;28;20016;-69
2023/04/04 09:15:37;;;;;;;4.05;2.28;;;9.40;45.50;;;;;;5097896;28;20024;-69
2023/04/04 09:18:03;;;;;;;4.68;2.70;;;9.40;45.90;;;;;;5087501;28;20027;-69
2023/04/04 09:20:34;;;;;;;5.22;2.42;;;9.40;45.50;;;;;;5075685;28;20494;-69
2023/04/04 09:23:00;;;;;;;5.72;2.92;;;9.40;45.40;;;;;;5078296;28;20123;-69
2023/04/04 09:25:25;;;;;;;4.60;2.78;;;9.50;45.70;;;;;;5079720;28;20107;-69
2023/04/04 09:27:52;;;;;;;4.63;2.80;;;9.40;45.50;;;;;;5082509;28;20347;-69
2023/04/04 09:30:19;;;;;;;3.83;2.42;;;9.50;45.30;;;;;;5073804;28;20051;-69
2023/04/04 09:32:45;;;;;;;4.82;2.80;;;9.50;45.40;;;;;;5082449;28;20021;-69
2023/04/04 09:35:14;;;;;;;4.82;2.83;;;9.40;45.60;;;;;;5075476;28;20032;-69
2023/04/04 09:37:41;;;;;;;3.53;2.35;;;9.50;45.90;;;;;;5086789;28;20390;-69
2023/04/04 09:40:09;;;;;;;4.43;2.67;;;9.60;46.10;;;;;;5085907;28;20428;-69
2023/04/04 09:42:34;;;;;;;6.60;3.47;;;9.50;45.90;;;;;;5087232;28;20062;-69
2023/04/04 09:45:01;;;;;;;4.65;3.17;;;9.40;45.10;;;;;;5078069;28;20059;-69
2023/04/04 09:47:29;;;;;;;5.88;3.22;;;9.30;45.40;;;;;;5078135;28;20032;-69
2023/04/04 09:49:59;;;;;;;4.85;2.50;;;9.40;46.50;;;;;;5079283;28;20099;-69
2023/04/04 09:52:25;;;;;;;5.80;2.72;;;9.40;45.50;;;;;;5082320;28;20061;-69
2023/04/04 09:55:09;;;;;;;6.38;2.58;;;9.30;45.00;;;;;;5072533;28;20542;-69
2023/04/04 09:57:36;;;;;;;5.43;3.00;;;9.20;45.80;;;;;;5075953;28;20060;-69
2023/04/04 10:00:08;;;;;;;4.57;2.80;;;9.30;45.60;;;;;;5074123;28;20211;-69
2023/04/04 10:02:36;;;;;;;4.67;2.37;;;9.40;45.80;;;;;;5081580;28;20104;-69
2023/04/04 10:05:03;;;;;;;5.63;2.60;;;9.50;45.60;;;;;;5075041;28;20032;-69
2023/04/04 10:07:30;;;;;;;6.97;2.65;;;9.40;44.90;;;;;;5082798;28;20034;-69
2023/04/04 10:09:56;;;;;;;4.40;2.80;;;9.50;45.10;;;;;;5085436;28;20017;-69
2023/04/04 10:12:23;;;;;;;5.80;2.70;;;9.50;44.80;;;;;;5086049;28;20489;-69
2023/04/04 10:14:58;;;;;;;4.45;2.50;;;9.50;44.70;;;;;;5082984;28;20478;-69
2023/04/04 10:17:29;;;;;;;4.50;2.60;;;9.50;45.00;;;;;;5086281;28;20048;-69
2023/04/04 10:20:00;;;;;;;4.97;2.40;;;9.60;45.00;;;;;;5080810;28;20463;-69
2023/04/04 10:22:25;;;;;;;5.80;2.40;;;9.70;45.20;;;;;;5081087;28;20128;-69
2023/04/04 10:24:52;;;;;;;4.47;2.38;;;9.70;44.70;;;;;;5083844;28;20036;-69
2023/04/04 10:27:19;;;;;;;4.13;2.60;;;9.70;44.80;;;;;;5084969;28;20032;-69
2023/04/04 10:29:45;;;;;;;4.43;2.70;;;9.80;45.10;;;;;;5084707;28;20502;-69
2023/04/04 10:32:17;;;;;;;6.25;2.92;;;9.80;45.30;;;;;;5083924;28;20525;-69
2023/04/04 10:34:52;;;;;;;5.40;3.03;;;9.90;45.50;;;;;;5080139;28;20024;-69
2023/04/04 10:37:32;;;;;;;5.35;3.00;;;9.90;45.70;;;;;;5084301;28;20501;-69
2023/04/04 10:40:09;;;;;;;4.78;2.80;;;9.80;45.90;;;;;;5075094;28;20036;-70
2023/04/04 10:42:40;;;;;;;3.92;2.90;;;9.80;46.20;;;;;;5081087;28;20020;-69
2023/04/04 10:45:09;;;;;;;6.85;3.58;;;9.80;46.60;;;;;;5079089;28;20029;-69
2023/04/04 10:47:35;;;;;;;6.90;3.10;;;9.80;47.40;;;;;;5084981;28;20493;-69
2023/04/04 10:50:05;;;;;;;5.50;3.05;;;9.90;46.10;;;;;;5080359;28;20517;-69
2023/04/04 10:52:31;;;;;;;5.63;3.00;;;9.90;45.10;;;;;;5077483;28;20050;-69
2023/04/04 10:55:00;;;;;;;4.07;2.50;;;9.80;44.80;;;;;;5081539;28;20631;-69
2023/04/04 10:57:27;;;;;;;4.75;2.72;;;10.00;45.40;;;;;;5077118;28;20399;-69
2023/04/04 11:00:07;;;;;;;7.07;3.67;;;10.00;44.70;;;;;;5090533;28;20493;-69
2023/04/04 11:02:51;;;;;;;6.85;3.20;;;10.10;45.30;;;;;;5076715;28;20077;-69
2023/04/04 11:05:22;;;;;;;5.72;3.53;;;10.10;45.80;;;;;;5084897;28;20379;-69
2023/04/04 11:07:57;;;;;;;5.22;2.95;;;10.00;45.70;;;;;;5093536;28;20028;-69
2023/04/04 11:10:28;;;;;;;6.78;2.90;;;10.00;46.10;;;;;;5087745;28;20024;-68
2023/04/04 11:12:55;;;;;;;3.80;2.78;;;10.00;45.70;;;;;;5091522;28;20055;-68
2023/04/04 11:15:25;;;;;;;5.53;3.22;;;10.10;45.10;;;;;;5081780;28;20118;-68
2023/04/04 11:17:55;;;;;;;4.03;2.70;;;10.20;44.60;;;;;;5085417;28;20138;-68
2023/04/04 11:20:28;;;;;;;7.00;3.17;;;10.30;44.50;;;;;;5087069;28;20028;-66
2023/04/04 11:23:14;;;;;;;3.55;2.50;;;10.20;45.00;;;;;;5086295;28;20036;-66
2023/04/04 11:25:41;;;;;;;5.15;3.20;;;10.40;45.60;;;;;;5081179;28;20109;-66
2023/04/04 11:28:06;;;;;;;6.55;3.60;;;10.50;45.60;;;;;;5085859;28;20020;-66
2023/04/04 11:30:38;;;;;;;5.20;3.30;;;10.40;45.30;;;;;;5092690;28;20095;-66
2023/04/04 11:33:03;;;;;;;5.82;3.22;;;10.40;45.50;;;;;;5075213;28;20475;-67
2023/04/04 11:35:29;;;;;;;4.75;3.05;;;10.20;45.50;;;;;;5075562;28;20081;-67
2023/04/04 11:37:54;;;;;;;5.50;2.60;;;10.30;46.10;;;;;;5080605;28;20020;-67
2023/04/04 11:40:38;;;;;;;3.30;2.33;;;10.50;45.40;;;;;;5082786;28;20053;-67
2023/04/04 11:43:11;;;;;;;5.25;2.63;;;10.70;44.90;;;;;;5089534;28;20027;-67
2023/04/04 11:45:43;;;;;;;5.78;2.80;;;10.80;43.10;;;;;;5089542;28;20133;-66
2023/04/04 11:48:09;;;;;;;5.50;3.03;;;10.70;42.90;;;;;;5086377;28;20025;-66
2023/04/04 11:50:39;;;;;;;5.50;2.72;;;10.70;43.60;;;;;;5087413;28;20414;-68
2023/04/04 11:53:12;;;;;;;5.18;3.00;;;10.70;43.80;;;;;;5082134;28;20585;-66
2023/04/04 11:55:42;;;;;;;4.55;3.03;;;10.80;44.10;;;;;;5084336;28;20020;-66
2023/04/04 11:58:16;;;;;;;3.97;2.70;;;10.90;44.00;;;;;;5088612;28;20024;-66
2023/04/04 12:00:42;;;;;;;4.43;2.80;;;10.90;43.20;;;;;;5087015;28;20027;-66
2023/04/04 12:03:11;;;;;;;4.28;2.40;;;10.80;42.60;;;;;;5087526;28;20035;-66
2023/04/04 12:05:42;;;;;;;4.78;2.40;;;11.00;42.80;;;;;;5085049;28;20364;-66
2023/04/04 12:08:09;;;;;;;3.10;2.08;;;11.20;42.50;;;;;;5087504;28;20106;-67
2023/04/04 12:10:37;;;;;;;5.70;2.53;;;11.40;42.10;;;;;;5090402;28;20024;-66
2023/04/04 12:13:08;;;;;;;4.18;2.67;;;11.30;40.70;;;;;;5091758;28;20103;-67
2023/04/04 12:15:37;;;;;;;5.72;2.47;;;11.30;41.10;;;;;;5090259;28;20028;-67
2023/04/04 12:18:06;;;;;;;4.13;2.38;;;11.50;41.50;;;;;;5074941;28;20055;-66
2023/04/04 12:20:31;;;;;;;4.30;2.63;;;11.70;41.00;;;;;;5081751;28;20114;-67
2023/04/04 12:22:57;;;;;;;3.47;2.35;;;11.60;40.70;;;;;;5076981;28;20060;-70
2023/04/04 12:25:24;;;;;;;4.63;2.72;;;11.60;41.30;;;;;;5079856;28;20058;-66
2023/04/04 12:27:51;;;;;;;4.00;2.35;;;11.80;41.30;;;;;;5086370;28;20052;-66
2023/04/04 12:30:17;;;;;;;3.63;2.40;;;11.90;41.30;;;;;;5092471;28;20378;-67
2023/04/04 12:32:46;;;;;;;4.75;2.50;;;12.00;41.40;;;;;;5080210;28;20021;-66
2023/04/04 12:35:12;;;;;;;5.65;2.83;;;12.30;41.50;;;;;;5078127;28;20447;-66
2023/04/04 12:37:39;;;;;;;3.35;2.20;;;12.40;40.70;;;;;;5076360;28;20029;-67
2023/04/04 12:40:06;;;;;;;4.20;2.58;;;12.40;40.20;;;;;;5091260;28;20028;-67
2023/04/04 12:42:33;;;;;;;3.78;2.45;;;12.40;40.00;;;;;;5090226;28;20028;-66
2023/04/04 12:45:02;;;;;;;4.03;2.75;;;12.30;40.00;;;;;;5083742;28;20471;-67
2023/04/04 12:47:30;;;;;;;4.10;2.40;;;12.30;40.60;;;;;;5084479;28;20024;-67
2023/04/04 12:49:56;;;;;;;5.80;2.58;;;12.60;40.90;;;;;;5091068;28;20091;-67
2023/04/04 12:52:33;;;;;;;5.40;2.60;;;12.80;40.30;;;;;;5085233;28;20112;-67